Time;durP1;ratioP1;P1;durP2;ratioP2;P2;SDS_P1;SDS_P2;PMS_P1;PMS_P2;Temp;Humidity;BMP_temperature;BMP_pressure;BME280_temperature;BME280_humidity;BME280_pressure;Samples;Min_cycle;Max_cycle;Signal;HPM_P1;HPM_P2
2023/06/02 00:00:09;;;;;;;11.65;4.70;;;;;;;;;;5074348;28;20197;-80
2023/06/02 00:02:37;;;;;;;4.28;3.58;;;;;;;;;;5074817;28;20230;-81
2023/06/02 00:05:05;;;;;;;5.82;3.92;;;;;;;;;;5073107;28;20209;-80
2023/06/02 00:07:37;;;;;;;2.95;2.70;;;;;;;;;;5073346;28;20661;-79
2023/06/02 00:10:05;;;;;;;5.45;3.30;;;;;;;;;;5069467;28;20193;-80
2023/06/02 00:12:33;;;;;;;3.72;3.42;;;;;;;;;;5079751;28;20562;-81
2023/06/02 00:15:01;;;;;;;4.10;3.63;;;;;;;;;;5080134;22;20226;-79
2023/06/02 00:17:34;;;;;;;4.45;4.05;;;;;;;;;;5052334;28;20634;-79
2023/06/02 00:20:02;;;;;;;5.00;4.20;;;;;;;;;;5050656;28;20198;-80
2023/06/02 00:22:29;;;;;;;3.45;3.10;;;;;;;;;;5055543;28;20200;-80
2023/06/02 00:24:58;;;;;;;3.95;3.50;;;;;;;;;;5049416;28;20261;-79
2023/06/02 00:27:26;;;;;;;4.68;3.45;;;;;;;;;;5052832;28;20241;-78
2023/06/02 00:29:53;;;;;;;4.05;3.65;;;;;;;;;;5053387;28;20634;-78
2023/06/02 00:32:21;;;;;;;7.38;3.83;;;;;;;;;;5054878;28;20234;-79
2023/06/02 00:34:48;;;;;;;3.38;3.03;;;;;;;;;;5055049;28;20217;-79
2023/06/02 00:37:16;;;;;;;4.97;3.60;;;;;;;;;;5054157;28;20233;-79
2023/06/02 00:39:43;;;;;;;3.67;3.38;;;;;;;;;;5041970;28;20233;-79
2023/06/02 00:42:12;;;;;;;4.38;3.70;;;;;;;;;;5051943;28;20255;-78
2023/06/02 00:44:40;;;;;;;3.90;3.50;;;;;;;;;;5047558;28;20273;-79
2023/06/02 00:47:08;;;;;;;4.85;3.00;;;;;;;;;;5039153;28;20198;-78
2023/06/02 00:49:35;;;;;;;5.72;3.53;;;;;;;;;;5052289;28;20215;-78
2023/06/02 00:52:03;;;;;;;3.35;3.05;;;;;;;;;;5053825;28;20193;-78
2023/06/02 00:54:30;;;;;;;4.22;2.83;;;;;;;;;;5052287;28;20312;-79
2023/06/02 00:56:58;;;;;;;4.38;3.38;;;;;;;;;;5045533;28;20201;-79
2023/06/02 00:59:27;;;;;;;6.95;2.92;;;;;;;;;;5051924;28;20233;-79
2023/06/02 01:01:54;;;;;;;5.68;3.50;;;;;;;;;;5046634;28;20205;-79
2023/06/02 01:04:22;;;;;;;5.10;3.85;;;;;;;;;;5047232;28;20283;-78
2023/06/02 01:06:51;;;;;;;3.63;2.80;;;;;;;;;;5048198;28;20210;-79
2023/06/02 01:09:19;;;;;;;4.30;3.90;;;;;;;;;;5050747;28;20194;-78
2023/06/02 01:11:47;;;;;;;3.42;3.10;;;;;;;;;;5050847;28;20211;-79
2023/06/02 01:14:15;;;;;;;5.05;3.92;;;;;;;;;;5049934;28;20650;-79
2023/06/02 01:16:49;;;;;;;3.17;2.88;;;;;;;;;;5049042;28;20216;-78
2023/06/02 01:19:21;;;;;;;4.07;3.75;;;;;;;;;;5051333;28;20193;-78
2023/06/02 01:21:57;;;;;;;4.10;3.75;;;;;;;;;;5041338;28;20292;-81
2023/06/02 01:24:29;;;;;;;3.00;2.70;;;;;;;;;;5052324;28;20225;-79
2023/06/02 01:26:58;;;;;;;3.85;3.38;;;;;;;;;;5041696;28;20194;-80
2023/06/02 01:29:26;;;;;;;3.28;2.97;;;;;;;;;;5051381;28;20288;-80
2023/06/02 01:31:55;;;;;;;4.72;3.45;;;;;;;;;;5054158;28;20229;-79
2023/06/02 01:34:27;;;;;;;5.40;3.50;;;;;;;;;;5039353;28;20214;-79
2023/06/02 01:36:58;;;;;;;3.45;3.15;;;;;;;;;;5052532;28;20194;-80
2023/06/02 01:39:29;;;;;;;2.97;2.42;;;;;;;;;;5047048;28;20234;-80
2023/06/02 01:41:58;;;;;;;4.85;3.05;;;;;;;;;;5047519;28;20202;-78
2023/06/02 01:44:27;;;;;;;4.22;2.70;;;;;;;;;;5049336;28;20230;-79
2023/06/02 01:46:55;;;;;;;3.40;2.80;;;;;;;;;;5052854;28;20280;-79
2023/06/02 01:49:22;;;;;;;4.82;3.22;;;;;;;;;;5053846;28;20210;-80
2023/06/02 01:51:50;;;;;;;4.03;3.38;;;;;;;;;;5052626;28;20201;-80
2023/06/02 01:54:17;;;;;;;8.98;4.45;;;;;;;;;;5051374;28;20241;-80
2023/06/02 01:56:46;;;;;;;4.25;3.13;;;;;;;;;;5047138;28;20293;-79
2023/06/02 01:59:13;;;;;;;5.55;5.03;;;;;;;;;;5048797;28;20194;-78
2023/06/02 02:01:42;;;;;;;4.05;3.30;;;;;;;;;;5050190;28;20284;-80
2023/06/02 02:04:09;;;;;;;3.42;3.13;;;;;;;;;;5048835;28;20326;-79
2023/06/02 02:06:37;;;;;;;4.40;3.35;;;;;;;;;;5062207;28;20708;-79
2023/06/02 02:09:07;;;;;;;3.50;3.20;;;;;;;;;;5064804;28;20228;-79
2023/06/02 02:11:34;;;;;;;2.65;2.38;;;;;;;;;;5057955;28;20198;-79
2023/06/02 02:14:04;;;;;;;3.20;2.95;;;;;;;;;;5055442;28;20222;-80
2023/06/02 02:16:31;;;;;;;2.65;2.45;;;;;;;;;;5058474;28;20201;-78
2023/06/02 02:19:00;;;;;;;3.08;2.70;;;;;;;;;;5057366;28;20273;-80
2023/06/02 02:21:27;;;;;;;4.05;3.08;;;;;;;;;;5052496;28;20280;-80
2023/06/02 02:23:55;;;;;;;3.35;3.05;;;;;;;;;;5047050;28;20217;-80
2023/06/02 02:26:23;;;;;;;7.10;3.78;;;;;;;;;;5054179;28;20189;-80
2023/06/02 02:28:50;;;;;;;2.70;2.50;;;;;;;;;;5053436;28;20194;-80
2023/06/02 02:31:19;;;;;;;7.10;3.22;;;;;;;;;;5047308;28;20208;-80
2023/06/02 02:33:47;;;;;;;3.55;2.60;;;;;;;;;;5044979;28;20240;-79
2023/06/02 02:36:16;;;;;;;3.22;2.50;;;;;;;;;;5045779;28;20194;-80
2023/06/02 02:38:43;;;;;;;4.90;2.40;;;;;;;;;;5053387;28;20252;-79
2023/06/02 02:41:12;;;;;;;5.60;2.85;;;;;;;;;;5049854;28;20204;-80
2023/06/02 02:43:39;;;;;;;3.33;2.78;;;;;;;;;;5052981;28;20220;-80
2023/06/02 02:46:07;;;;;;;3.53;3.08;;;;;;;;;;5052163;28;20222;-79
2023/06/02 02:48:36;;;;;;;5.45;3.05;;;;;;;;;;5053221;28;20251;-80
2023/06/02 02:51:03;;;;;;;6.10;2.60;;;;;;;;;;5052942;28;20683;-79
2023/06/02 02:53:31;;;;;;;2.90;2.67;;;;;;;;;;5056046;28;20214;-78
2023/06/02 02:55:58;;;;;;;4.85;3.35;;;;;;;;;;5053840;28;20229;-80
2023/06/02 02:58:26;;;;;;;6.55;3.40;;;;;;;;;;5054332;28;20280;-79
2023/06/02 03:00:53;;;;;;;4.45;3.78;;;;;;;;;;5056204;28;20201;-79
2023/06/02 03:03:21;;;;;;;4.68;3.53;;;;;;;;;;5055235;28;20200;-79
2023/06/02 03:05:50;;;;;;;6.10;3.30;;;;;;;;;;5054195;28;20222;-80
2023/06/02 03:08:17;;;;;;;5.22;3.72;;;;;;;;;;5053351;28;20574;-80
2023/06/02 03:10:45;;;;;;;3.92;3.03;;;;;;;;;;5048240;28;20284;-79
2023/06/02 03:13:14;;;;;;;3.53;2.65;;;;;;;;;;5054521;28;20220;-79
2023/06/02 03:15:41;;;;;;;6.32;3.10;;;;;;;;;;5039202;28;20198;-79
2023/06/02 03:18:09;;;;;;;3.85;2.92;;;;;;;;;;5055594;28;20202;-79
2023/06/02 03:20:37;;;;;;;3.90;2.90;;;;;;;;;;5050493;28;20304;-80
2023/06/02 03:23:05;;;;;;;4.57;3.03;;;;;;;;;;5050913;28;20719;-80
2023/06/02 03:25:34;;;;;;;3.85;3.35;;;;;;;;;;5049479;28;20225;-79
2023/06/02 03:28:02;;;;;;;4.45;2.70;;;;;;;;;;5055884;28;20229;-79
2023/06/02 03:30:30;;;;;;;4.32;2.63;;;;;;;;;;5053888;28;20670;-79
2023/06/02 03:32:57;;;;;;;2.65;2.45;;;;;;;;;;5055299;28;20201;-79
2023/06/02 03:35:25;;;;;;;3.30;2.97;;;;;;;;;;5052161;28;20214;-77
2023/06/02 03:37:52;;;;;;;4.50;3.15;;;;;;;;;;5049956;28;20204;-78
2023/06/02 03:40:21;;;;;;;3.08;2.67;;;;;;;;;;5054180;28;20193;-78
2023/06/02 03:42:48;;;;;;;6.65;3.30;;;;;;;;;;5054617;28;20208;-78
2023/06/02 03:45:16;;;;;;;2.83;2.60;;;;;;;;;;5052561;28;20233;-79
2023/06/02 03:47:43;;;;;;;3.85;3.42;;;;;;;;;;5046495;28;20862;-78
2023/06/02 03:50:12;;;;;;;4.40;3.40;;;;;;;;;;5053346;28;20289;-78
2023/06/02 03:52:39;;;;;;;3.28;2.67;;;;;;;;;;5053993;28;20654;-78
2023/06/02 03:55:08;;;;;;;3.15;2.70;;;;;;;;;;5055915;28;20216;-79
2023/06/02 03:57:37;;;;;;;4.60;3.17;;;;;;;;;;5053867;28;20673;-78
2023/06/02 04:00:10;;;;;;;3.17;2.83;;;;;;;;;;5054937;28;20209;-78
2023/06/02 04:02:37;;;;;;;4.45;3.13;;;;;;;;;;5055089;28;20292;-80
2023/06/02 04:05:06;;;;;;;5.75;2.80;;;;;;;;;;5051234;28;20309;-78
2023/06/02 04:07:33;;;;;;;4.07;2.90;;;;;;;;;;5046835;28;20193;-79
2023/06/02 04:10:02;;;;;;;3.10;2.42;;;;;;;;;;5040934;28;20195;-79
2023/06/02 04:12:30;;;;;;;3.15;2.85;;;;;;;;;;5049901;28;20202;-80
2023/06/02 04:14:59;;;;;;;4.53;2.92;;;;;;;;;;5050942;28;20222;-79
2023/06/02 04:17:26;;;;;;;3.10;2.80;;;;;;;;;;5054570;28;20198;-79
2023/06/02 04:19:54;;;;;;;3.30;2.67;;;;;;;;;;5054008;28;20204;-79
2023/06/02 04:22:21;;;;;;;6.38;2.80;;;;;;;;;;5051774;28;20194;-80
2023/06/02 04:24:49;;;;;;;5.40;2.88;;;;;;;;;;5052683;28;20228;-80
2023/06/02 04:27:18;;;;;;;3.70;2.75;;;;;;;;;;5053857;28;20269;-79
2023/06/02 04:29:46;;;;;;;4.80;2.60;;;;;;;;;;5053322;28;20202;-79
2023/06/02 04:32:15;;;;;;;6.10;3.03;;;;;;;;;;5054930;28;20201;-80
2023/06/02 04:34:42;;;;;;;5.85;3.00;;;;;;;;;;5045476;28;20698;-79
2023/06/02 04:37:10;;;;;;;4.57;3.00;;;;;;;;;;5054026;28;20198;-79
2023/06/02 04:39:38;;;;;;;3.85;2.85;;;;;;;;;;5047823;28;20233;-79
2023/06/02 04:42:06;;;;;;;5.53;3.25;;;;;;;;;;5053947;28;20280;-79
2023/06/02 04:44:34;;;;;;;4.57;2.70;;;;;;;;;;5054251;28;20697;-79
2023/06/02 04:47:01;;;;;;;8.20;4.72;;;;;;;;;;5051327;28;20267;-78
2023/06/02 04:49:30;;;;;;;4.18;2.78;;;;;;;;;;5054283;28;20212;-80
2023/06/02 04:51:58;;;;;;;3.42;2.15;;;;;;;;;;5054908;28;20659;-79
2023/06/02 04:54:25;;;;;;;5.55;3.20;;;;;;;;;;5054155;28;20218;-79
2023/06/02 04:56:53;;;;;;;10.05;3.55;;;;;;;;;;5048757;28;20281;-79
2023/06/02 04:59:21;;;;;;;5.63;2.92;;;;;;;;;;5051260;28;20198;-79
2023/06/02 05:01:48;;;;;;;4.40;2.80;;;;;;;;;;5053486;28;20209;-79
2023/06/02 05:04:16;;;;;;;4.85;3.05;;;;;;;;;;5051397;28;20705;-79
2023/06/02 05:06:45;;;;;;;4.30;2.75;;;;;;;;;;5044614;28;20245;-79
2023/06/02 05:09:13;;;;;;;2.38;1.98;;;;;;;;;;5056122;28;20240;-78
2023/06/02 05:11:40;;;;;;;3.83;2.92;;;;;;;;;;5060290;28;20198;-79
2023/06/02 05:14:08;;;;;;;3.55;2.67;;;;;;;;;;5052732;28;20229;-77
2023/06/02 05:16:35;;;;;;;5.10;2.42;;;;;;;;;;5071029;28;20269;-78
2023/06/02 05:19:03;;;;;;;4.70;2.78;;;;;;;;;;5069339;28;20216;-78
2023/06/02 05:21:32;;;;;;;2.55;2.13;;;;;;;;;;5069190;28;20221;-78
2023/06/02 05:24:00;;;;;;;6.38;2.97;;;;;;;;;;5062012;28;20281;-77
2023/06/02 05:26:28;;;;;;;3.67;2.75;;;;;;;;;;5066195;28;20278;-79
2023/06/02 05:28:57;;;;;;;13.15;3.10;;;;;;;;;;5055031;28;20233;-81
2023/06/02 05:31:24;;;;;;;4.88;2.58;;;;;;;;;;5058998;28;20193;-78
2023/06/02 05:33:52;;;;;;;6.05;2.78;;;;;;;;;;5058517;28;20225;-81
2023/06/02 05:36:19;;;;;;;3.72;2.90;;;;;;;;;;5058054;28;20201;-80
2023/06/02 05:38:47;;;;;;;4.18;2.88;;;;;;;;;;5055978;28;20228;-79
2023/06/02 05:41:15;;;;;;;7.80;2.88;;;;;;;;;;5055963;28;20280;-81
2023/06/02 05:43:43;;;;;;;9.18;3.45;;;;;;;;;;5056654;28;20226;-81
2023/06/02 05:46:11;;;;;;;5.47;2.92;;;;;;;;;;5055187;28;20225;-80
2023/06/02 05:48:39;;;;;;;5.93;2.40;;;;;;;;;;5055244;28;20296;-81
2023/06/02 05:51:06;;;;;;;3.08;1.88;;;;;;;;;;5053263;28;20293;-80
2023/06/02 05:53:33;;;;;;;5.50;2.50;;;;;;;;;;5054179;28;20300;-80
2023/06/02 05:56:01;;;;;;;4.18;2.60;;;;;;;;;;5048272;28;20204;-80
2023/06/02 05:58:31;;;;;;;5.72;2.90;;;;;;;;;;5054567;28;20198;-81
2023/06/02 06:00:58;;;;;;;4.97;2.58;;;;;;;;;;5055982;28;20292;-80
2023/06/02 06:03:26;;;;;;;4.85;2.92;;;;;;;;;;5051454;28;20311;-80
2023/06/02 06:05:53;;;;;;;3.88;2.08;;;;;;;;;;5056063;28;20206;-80
2023/06/02 06:08:21;;;;;;;2.67;2.22;;;;;;;;;;5053951;28;20203;-81
2023/06/02 06:10:48;;;;;;;5.07;2.72;;;;;;;;;;5054852;28;20278;-80
2023/06/02 06:13:16;;;;;;;6.78;2.75;;;;;;;;;;5056312;28;20555;-79
2023/06/02 06:15:47;;;;;;;3.13;2.70;;;;;;;;;;5092182;22;20304;-81
2023/06/02 06:18:16;;;;;;;3.33;2.85;;;;;;;;;;5054422;28;20283;-82
2023/06/02 06:20:43;;;;;;;3.60;2.80;;;;;;;;;;5054302;28;20232;-83
2023/06/02 06:23:12;;;;;;;5.78;2.33;;;;;;;;;;5057373;28;20208;-82
2023/06/02 06:25:39;;;;;;;5.57;2.72;;;;;;;;;;5054489;28;20208;-81
2023/06/02 06:28:07;;;;;;;5.60;2.58;;;;;;;;;;5053509;28;20289;-81
2023/06/02 06:30:35;;;;;;;8.63;5.68;;;;;;;;;;5058042;28;20193;-82
2023/06/02 06:33:04;;;;;;;5.60;2.80;;;;;;;;;;5056966;28;20221;-81
2023/06/02 06:35:31;;;;;;;5.60;3.17;;;;;;;;;;5049252;28;20673;-82
2023/06/02 06:38:00;;;;;;;4.70;2.60;;;;;;;;;;5058216;28;20304;-81
2023/06/02 06:40:27;;;;;;;2.25;1.80;;;;;;;;;;5048076;28;20225;-82
2023/06/02 06:42:55;;;;;;;6.03;2.85;;;;;;;;;;5057668;28;20608;-81
2023/06/02 06:45:22;;;;;;;4.30;2.20;;;;;;;;;;5057657;28;20205;-82
2023/06/02 06:47:50;;;;;;;3.92;2.30;;;;;;;;;;5062841;28;20312;-81
2023/06/02 06:50:19;;;;;;;3.90;2.78;;;;;;;;;;5062570;28;20206;-82
2023/06/02 06:52:48;;;;;;;6.65;2.58;;;;;;;;;;5063019;28;20255;-82
2023/06/02 06:55:16;;;;;;;3.63;2.45;;;;;;;;;;5063150;28;20197;-81
2023/06/02 06:57:43;;;;;;;6.78;3.72;;;;;;;;;;5060414;28;20246;-81
2023/06/02 07:00:13;;;;;;;3.13;2.35;;;;;;;;;;5061640;28;20204;-82
2023/06/02 07:02:43;;;;;;;5.43;2.45;;;;;;;;;;5057420;28;20202;-81
2023/06/02 07:05:10;;;;;;;3.83;3.22;;;;;;;;;;5059952;28;20224;-82
2023/06/02 07:07:39;;;;;;;8.00;2.88;;;;;;;;;;5060299;28;20228;-83
2023/06/02 07:10:08;;;;;;;6.53;3.08;;;;;;;;;;5057256;28;20217;-82
2023/06/02 07:12:35;;;;;;;3.88;2.90;;;;;;;;;;5061069;28;20284;-83
2023/06/02 07:15:03;;;;;;;3.55;2.63;;;;;;;;;;5059619;28;20210;-82
2023/06/02 07:17:31;;;;;;;3.08;2.47;;;;;;;;;;5056873;28;20222;-81
2023/06/02 07:19:58;;;;;;;5.25;2.78;;;;;;;;;;5056178;28;20237;-82
2023/06/02 07:22:40;;;;;;;4.15;2.80;;;;;;;;;;5036958;28;20285;-82
2023/06/02 07:25:08;;;;;;;4.93;2.58;;;;;;;;;;5044813;28;20229;-82
2023/06/02 07:27:36;;;;;;;5.70;2.90;;;;;;;;;;5058140;28;20229;-82
2023/06/02 07:30:05;;;;;;;5.30;2.67;;;;;;;;;;5051896;28;20272;-81
2023/06/02 07:32:32;;;;;;;5.03;3.50;;;;;;;;;;5058253;28;20288;-82
2023/06/02 07:35:00;;;;;;;7.15;3.30;;;;;;;;;;5051736;28;20281;-83
2023/06/02 07:37:32;;;;;;;7.00;3.83;;;;;;;;;;5045950;28;20237;-81
2023/06/02 07:40:00;;;;;;;6.72;3.00;;;;;;;;;;5052463;28;20237;-82
2023/06/02 07:42:28;;;;;;;7.78;4.20;;;;;;;;;;5058635;28;20273;-83
2023/06/02 07:44:55;;;;;;;5.82;2.78;;;;;;;;;;5060328;28;20198;-82
2023/06/02 07:47:23;;;;;;;6.20;3.42;;;;;;;;;;5058338;28;20304;-82
2023/06/02 07:49:51;;;;;;;7.38;4.00;;;;;;;;;;5046002;28;20213;-83
2023/06/02 07:52:18;;;;;;;6.10;3.70;;;;;;;;;;5055506;28;20568;-82
2023/06/02 07:54:46;;;;;;;3.92;2.75;;;;;;;;;;5056830;28;20285;-82
2023/06/02 07:57:14;;;;;;;6.75;3.22;;;;;;;;;;5058855;28;20579;-82
2023/06/02 07:59:42;;;;;;;3.80;2.55;;;;;;;;;;5044822;28;20293;-82
2023/06/02 08:02:09;;;;;;;4.10;3.13;;;;;;;;;;5055792;28;20288;-82
2023/06/02 08:04:37;;;;;;;6.68;3.47;;;;;;;;;;5056221;28;20229;-82
2023/06/02 08:07:05;;;;;;;2.45;2.25;;;;;;;;;;5059131;28;20245;-82
2023/06/02 08:09:32;;;;;;;3.22;2.55;;;;;;;;;;5053604;28;20570;-81
2023/06/02 08:12:00;;;;;;;7.38;2.75;;;;;;;;;;5054854;28;20229;-83
2023/06/02 08:14:28;;;;;;;6.93;2.75;;;;;;;;;;5055411;28;20317;-83
2023/06/02 08:16:56;;;;;;;4.13;2.90;;;;;;;;;;5054983;28;20309;-84
2023/06/02 08:19:24;;;;;;;2.72;2.17;;;;;;;;;;5059855;28;20269;-82
2023/06/02 08:21:51;;;;;;;4.97;2.55;;;;;;;;;;5058830;28;20194;-82
2023/06/02 08:24:20;;;;;;;8.73;4.00;;;;;;;;;;5057607;28;20194;-83
2023/06/02 08:26:48;;;;;;;4.85;2.65;;;;;;;;;;5058648;28;20218;-82
2023/06/02 08:29:15;;;;;;;2.38;2.20;;;;;;;;;;5058099;28;20571;-85
2023/06/02 08:31:44;;;;;;;4.32;3.13;;;;;;;;;;5055416;28;20282;-82
2023/06/02 08:34:12;;;;;;;3.15;2.17;;;;;;;;;;5051490;28;20202;-83
2023/06/02 08:36:39;;;;;;;3.47;2.30;;;;;;;;;;5050738;28;20217;-83
2023/06/02 08:39:07;;;;;;;3.90;3.03;;;;;;;;;;5056969;28;20228;-82
2023/06/02 08:41:38;;;;;;;6.32;2.78;;;;;;;;;;5058426;28;20716;-83
2023/06/02 08:44:06;;;;;;;3.38;2.45;;;;;;;;;;5051809;28;20584;-82
2023/06/02 08:46:34;;;;;;;7.03;3.20;;;;;;;;;;5057154;28;20197;-83
2023/06/02 08:49:04;;;;;;;3.42;2.55;;;;;;;;;;5055201;28;20256;-83
2023/06/02 08:51:37;;;;;;;4.18;2.50;;;;;;;;;;5057338;28;20686;-83
2023/06/02 08:54:07;;;;;;;3.28;2.53;;;;;;;;;;5053789;28;20190;-83
2023/06/02 08:56:34;;;;;;;3.88;2.22;;;;;;;;;;5056742;28;20212;-83
2023/06/02 08:59:02;;;;;;;4.80;2.85;;;;;;;;;;5055889;28;20280;-82
2023/06/02 09:01:29;;;;;;;5.25;2.97;;;;;;;;;;5055564;28;20293;-82
2023/06/02 09:03:57;;;;;;;7.10;3.08;;;;;;;;;;5055242;28;20233;-82
2023/06/02 09:06:28;;;;;;;3.22;2.63;;;;;;;;;;5054677;28;20205;-83
2023/06/02 09:08:58;;;;;;;4.28;2.10;;;;;;;;;;5052614;28;20289;-83
2023/06/02 09:11:26;;;;;;;3.28;2.03;;;;;;;;;;5054500;28;20585;-82
2023/06/02 09:13:54;;;;;;;4.78;2.15;;;;;;;;;;5054877;28;20225;-82
2023/06/02 09:16:23;;;;;;;6.05;3.25;;;;;;;;;;5056346;28;20201;-82
2023/06/02 09:18:58;;;;;;;2.60;2.40;;;;;;;;;;5049299;28;20218;-82
2023/06/02 09:21:29;;;;;;;3.92;2.42;;;;;;;;;;5044156;28;20291;-82
2023/06/02 09:23:58;;;;;;;6.07;2.17;;;;;;;;;;5054500;28;20208;-82
2023/06/02 09:26:28;;;;;;;4.78;3.08;;;;;;;;;;5041362;28;20689;-83
2023/06/02 09:29:09;;;;;;;3.78;2.65;;;;;;;;;;5036458;28;20229;-82
2023/06/02 09:31:47;;;;;;;3.60;2.50;;;;;;;;;;5039795;28;20226;-82
2023/06/02 09:34:16;;;;;;;2.45;2.25;;;;;;;;;;5056791;28;20273;-82
2023/06/02 09:36:47;;;;;;;2.95;2.15;;;;;;;;;;5049406;28;20223;-82
2023/06/02 09:39:14;;;;;;;3.33;2.53;;;;;;;;;;5093212;22;20240;-79
2023/06/02 09:41:42;;;;;;;4.88;3.42;;;;;;;;;;5071653;28;20209;-80
2023/06/02 09:44:14;;;;;;;5.45;2.67;;;;;;;;;;5061975;28;20221;-79
2023/06/02 09:46:44;;;;;;;3.65;2.25;;;;;;;;;;5062743;28;20197;-79
2023/06/02 09:49:13;;;;;;;4.82;3.08;;;;;;;;;;5072222;28;20237;-80
2023/06/02 09:51:41;;;;;;;4.28;2.42;;;;;;;;;;5063440;28;20197;-80
2023/06/02 09:54:09;;;;;;;5.70;3.33;;;;;;;;;;5071929;28;20213;-79
2023/06/02 09:56:37;;;;;;;3.55;3.10;;;;;;;;;;5069754;28;20233;-79
2023/06/02 09:59:06;;;;;;;5.03;3.28;;;;;;;;;;5070891;28;20203;-80
2023/06/02 10:01:34;;;;;;;4.78;2.58;;;;;;;;;;5071897;28;20193;-79
2023/06/02 10:04:02;;;;;;;6.72;4.10;;;;;;;;;;5071756;28;20257;-79
2023/06/02 10:06:57;;;;;;;5.72;3.50;;;;;;;;;;5065779;28;20591;-79
2023/06/02 10:09:39;;;;;;;4.70;3.03;;;;;;;;;;5071375;28;20655;-79
2023/06/02 10:12:22;;;;;;;3.58;2.75;;;;;;;;;;5072416;28;20292;-79
2023/06/02 10:15:15;;;;;;;5.03;2.97;;;;;;;;;;5071944;28;20220;-79
2023/06/02 10:17:56;;;;;;;3.10;1.90;;;;;;;;;;5071684;28;20197;-79
2023/06/02 10:20:28;;;;;;;4.00;2.10;;;;;;;;;;5069273;28;20201;-79
2023/06/02 10:23:20;;;;;;;3.20;2.42;;;;;;;;;;5065334;28;20203;-81
2023/06/02 10:26:07;;;;;;;3.50;2.22;;;;;;;;;;5068286;28;20220;-80
2023/06/02 10:28:35;;;;;;;2.22;2.00;;;;;;;;;;5071560;28;20192;-79
2023/06/02 10:31:11;;;;;;;3.60;2.33;;;;;;;;;;5070578;28;20201;-80
2023/06/02 10:33:43;;;;;;;6.03;2.72;;;;;;;;;;5067381;28;20201;-80
2023/06/02 10:36:12;;;;;;;3.15;2.60;;;;;;;;;;5069148;28;20665;-78
2023/06/02 10:38:39;;;;;;;4.10;2.47;;;;;;;;;;5071993;28;20254;-80
2023/06/02 10:41:08;;;;;;;5.97;3.20;;;;;;;;;;5071883;28;20201;-79
2023/06/02 10:43:36;;;;;;;4.43;3.20;;;;;;;;;;5069897;28;20212;-79
2023/06/02 10:46:21;;;;;;;4.40;2.50;;;;;;;;;;5071334;28;20213;-79
2023/06/02 10:48:49;;;;;;;3.88;2.50;;;;;;;;;;5071055;28;20262;-79
2023/06/02 10:51:18;;;;;;;7.75;2.78;;;;;;;;;;5062008;28;20673;-79
2023/06/02 10:54:15;;;;;;;4.78;2.35;;;;;;;;;;5063814;28;20570;-79
2023/06/02 10:56:46;;;;;;;3.67;1.95;;;;;;;;;;5064559;28;20246;-79
2023/06/02 10:59:34;;;;;;;4.00;2.30;;;;;;;;;;5071788;28;20208;-79
2023/06/02 11:02:01;;;;;;;2.30;1.85;;;;;;;;;;5061743;28;20198;-79
2023/06/02 11:04:32;;;;;;;4.43;2.20;;;;;;;;;;5070983;28;20221;-79
2023/06/02 11:07:26;;;;;;;6.80;2.05;;;;;;;;;;5070522;28;20201;-79
2023/06/02 11:09:58;;;;;;;2.80;2.20;;;;;;;;;;5068558;28;20220;-79
2023/06/02 11:13:06;;;;;;;2.95;1.65;;;;;;;;;;5070995;28;20213;-80
2023/06/02 11:15:33;;;;;;;7.70;2.70;;;;;;;;;;5069318;28;20267;-79
2023/06/02 11:18:03;;;;;;;5.78;3.25;;;;;;;;;;5071178;28;20197;-79
2023/06/02 11:20:34;;;;;;;3.15;2.22;;;;;;;;;;5068882;28;20231;-79
2023/06/02 11:23:05;;;;;;;4.40;1.80;;;;;;;;;;5065935;28;20189;-79
2023/06/02 11:25:33;;;;;;;5.80;2.50;;;;;;;;;;5068130;28;20301;-80
2023/06/02 11:28:01;;;;;;;4.57;2.85;;;;;;;;;;5065657;28;20288;-79
2023/06/02 11:30:30;;;;;;;2.53;1.98;;;;;;;;;;5069932;28;20221;-80
2023/06/02 11:32:57;;;;;;;4.25;2.05;;;;;;;;;;5069705;28;20196;-79
2023/06/02 11:35:27;;;;;;;3.65;2.15;;;;;;;;;;5073930;28;20248;-80
2023/06/02 11:38:04;;;;;;;2.88;2.58;;;;;;;;;;5074501;28;20219;-79
2023/06/02 11:40:32;;;;;;;2.83;2.40;;;;;;;;;;5074189;28;20574;-80
2023/06/02 11:43:00;;;;;;;3.30;2.10;;;;;;;;;;5074330;28;20679;-79
2023/06/02 11:45:30;;;;;;;3.80;2.15;;;;;;;;;;5074067;28;20267;-79
2023/06/02 11:48:05;;;;;;;2.72;1.55;;;;;;;;;;5073824;28;20584;-79
2023/06/02 11:50:32;;;;;;;2.17;1.92;;;;;;;;;;5072446;28;20212;-80
2023/06/02 11:53:00;;;;;;;2.22;1.77;;;;;;;;;;5074193;28;20207;-80
2023/06/02 11:55:29;;;;;;;3.10;2.00;;;;;;;;;;5074179;28;20220;-79
2023/06/02 11:58:22;;;;;;;5.30;2.95;;;;;;;;;;5067615;28;20209;-77
2023/06/02 12:00:51;;;;;;;3.35;2.00;;;;;;;;;;5066317;28;20185;-79
2023/06/02 12:03:19;;;;;;;3.58;3.05;;;;;;;;;;5072705;28;20198;-79
2023/06/02 12:05:49;;;;;;;4.18;2.08;;;;;;;;;;5072970;28;20221;-79
2023/06/02 12:08:22;;;;;;;4.53;2.65;;;;;;;;;;5063200;28;20190;-79
2023/06/02 12:10:50;;;;;;;2.88;1.90;;;;;;;;;;5073551;28;20217;-79
2023/06/02 12:13:25;;;;;;;3.15;2.15;;;;;;;;;;5073602;28;20284;-79
2023/06/02 12:15:54;;;;;;;3.75;2.42;;;;;;;;;;5097563;22;20224;-81
2023/06/02 12:18:32;;;;;;;4.13;2.40;;;;;;;;;;5060507;28;20197;-82
2023/06/02 12:21:00;;;;;;;3.80;2.42;;;;;;;;;;5076137;28;20216;-82
2023/06/02 12:23:44;;;;;;;3.08;1.90;;;;;;;;;;5076311;28;20665;-82
2023/06/02 12:26:11;;;;;;;2.40;1.60;;;;;;;;;;5071771;28;20216;-82
2023/06/02 12:28:40;;;;;;;3.40;2.08;;;;;;;;;;5076601;28;20201;-82
2023/06/02 12:31:09;;;;;;;3.30;2.00;;;;;;;;;;5075517;28;20701;-81
2023/06/02 12:33:36;;;;;;;2.58;1.75;;;;;;;;;;5077141;28;20201;-83
2023/06/02 12:36:04;;;;;;;3.28;1.85;;;;;;;;;;5074206;28;20253;-81
2023/06/02 12:38:32;;;;;;;4.28;1.85;;;;;;;;;;5066396;28;20201;-82
2023/06/02 12:40:59;;;;;;;4.22;2.63;;;;;;;;;;5074746;28;20292;-81
2023/06/02 12:43:27;;;;;;;3.63;1.60;;;;;;;;;;5066497;28;20289;-81
2023/06/02 12:45:55;;;;;;;2.65;1.98;;;;;;;;;;5075971;28;20312;-82
2023/06/02 12:48:23;;;;;;;3.83;2.25;;;;;;;;;;5073949;28;20578;-81
2023/06/02 12:50:51;;;;;;;1.70;1.60;;;;;;;;;;5073610;28;20225;-79
2023/06/02 12:53:18;;;;;;;1.85;1.70;;;;;;;;;;5074841;28;20196;-80
2023/06/02 12:55:46;;;;;;;2.53;1.83;;;;;;;;;;5075358;28;20225;-82
2023/06/02 12:58:13;;;;;;;5.28;1.88;;;;;;;;;;5073211;28;20657;-80
2023/06/02 13:00:41;;;;;;;1.98;1.63;;;;;;;;;;5074358;28;20194;-82
2023/06/02 13:03:09;;;;;;;4.18;2.25;;;;;;;;;;5075699;28;20584;-82
2023/06/02 13:05:39;;;;;;;3.40;2.17;;;;;;;;;;5072228;28;20312;-82
2023/06/02 13:08:07;;;;;;;4.93;2.63;;;;;;;;;;5074848;28;20661;-82
2023/06/02 13:10:34;;;;;;;3.75;2.20;;;;;;;;;;5074571;28;20220;-81
2023/06/02 13:13:04;;;;;;;3.90;2.38;;;;;;;;;;5073267;28;20201;-81
2023/06/02 13:15:31;;;;;;;5.13;3.10;;;;;;;;;;5064376;28;20286;-82
2023/06/02 13:17:59;;;;;;;8.55;3.13;;;;;;;;;;5068220;28;20196;-82
2023/06/02 13:20:26;;;;;;;4.03;2.22;;;;;;;;;;5071624;28;20197;-80
2023/06/02 13:22:55;;;;;;;3.53;2.47;;;;;;;;;;5066148;28;20197;-79
2023/06/02 13:25:23;;;;;;;3.88;2.28;;;;;;;;;;5074447;28;20221;-82
2023/06/02 13:27:50;;;;;;;3.78;2.10;;;;;;;;;;5075151;28;20590;-79
2023/06/02 13:30:19;;;;;;;3.30;2.17;;;;;;;;;;5074079;28;20280;-84
2023/06/02 13:32:46;;;;;;;3.05;2.13;;;;;;;;;;5069484;28;20205;-81
2023/06/02 13:35:14;;;;;;;5.65;2.13;;;;;;;;;;5071078;28;20232;-81
2023/06/02 13:37:41;;;;;;;2.70;1.60;;;;;;;;;;5065427;28;20204;-82
2023/06/02 13:40:11;;;;;;;1.92;1.58;;;;;;;;;;5074350;28;20193;-82
2023/06/02 13:42:38;;;;;;;2.42;2.08;;;;;;;;;;5072840;28;20197;-81
2023/06/02 13:45:07;;;;;;;3.80;2.17;;;;;;;;;;5073815;28;20735;-81
2023/06/02 13:47:34;;;;;;;4.28;2.17;;;;;;;;;;5074910;28;20201;-80
2023/06/02 13:50:02;;;;;;;5.30;3.47;;;;;;;;;;5073879;28;20592;-80
2023/06/02 13:52:29;;;;;;;2.20;1.73;;;;;;;;;;5068749;28;20212;-80
2023/06/02 13:54:57;;;;;;;3.13;1.70;;;;;;;;;;5066788;28;20299;-81
2023/06/02 13:57:26;;;;;;;2.80;2.17;;;;;;;;;;5073249;28;20807;-82
2023/06/02 13:59:53;;;;;;;2.40;1.92;;;;;;;;;;5066543;28;20223;-80
2023/06/02 14:02:21;;;;;;;2.40;1.58;;;;;;;;;;5064831;28;20257;-81
2023/06/02 14:04:49;;;;;;;1.90;1.50;;;;;;;;;;5073979;28;20262;-81
2023/06/02 14:07:16;;;;;;;4.63;1.50;;;;;;;;;;5073435;28;20284;-82
2023/06/02 14:09:45;;;;;;;1.42;1.30;;;;;;;;;;5067587;28;20730;-81
2023/06/02 14:12:12;;;;;;;2.45;2.08;;;;;;;;;;5073902;28;20803;-80
2023/06/02 14:14:41;;;;;;;1.90;1.65;;;;;;;;;;5072607;28;20315;-81
2023/06/02 14:17:08;;;;;;;3.85;2.20;;;;;;;;;;5070991;28;20208;-81
2023/06/02 14:19:36;;;;;;;1.63;1.50;;;;;;;;;;5069997;28;20229;-82
2023/06/02 14:22:04;;;;;;;2.45;1.58;;;;;;;;;;5071650;28;20713;-83
2023/06/02 14:24:31;;;;;;;2.03;1.55;;;;;;;;;;5071059;28;20288;-82
2023/06/02 14:26:59;;;;;;;3.05;1.55;;;;;;;;;;5071988;28;20236;-83
2023/06/02 14:29:26;;;;;;;2.03;1.73;;;;;;;;;;5067537;28;20847;-81
2023/06/02 14:31:55;;;;;;;2.55;1.98;;;;;;;;;;5071922;28;20308;-82
2023/06/02 14:34:23;;;;;;;3.58;1.92;;;;;;;;;;5072479;28;20665;-82
2023/06/02 14:36:50;;;;;;;2.75;1.70;;;;;;;;;;5071945;28;20268;-81
2023/06/02 14:39:18;;;;;;;3.15;2.00;;;;;;;;;;5080368;28;20638;-83
2023/06/02 14:41:45;;;;;;;3.20;1.83;;;;;;;;;;5077803;28;20221;-82
2023/06/02 14:44:12;;;;;;;2.70;2.10;;;;;;;;;;5084755;28;20284;-81
2023/06/02 14:46:42;;;;;;;1.65;1.55;;;;;;;;;;5082371;28;20213;-82
2023/06/02 14:49:12;;;;;;;4.20;2.20;;;;;;;;;;5085331;28;20193;-82
2023/06/02 14:51:39;;;;;;;1.85;1.48;;;;;;;;;;5075954;28;20229;-83
2023/06/02 14:54:06;;;;;;;6.38;2.30;;;;;;;;;;5070792;28;20201;-81